createdAt,value
2022-09-10T00:00:37.775Z,479.00
2022-09-10T00:01:38.956Z,481.00
2022-09-10T00:02:37.804Z,484.00
2022-09-10T00:03:37.994Z,484.00
2022-09-10T00:04:37.836Z,481.00
2022-09-10T00:05:37.797Z,480.00
2022-09-10T00:06:37.708Z,479.00
2022-09-10T00:07:38.827Z,478.00
2022-09-10T00:08:37.758Z,480.00
2022-09-10T00:09:37.845Z,480.00
2022-09-10T00:10:37.706Z,484.00
2022-09-10T00:11:38.855Z,484.00
2022-09-10T00:12:37.676Z,481.00
2022-09-10T00:13:37.749Z,483.00
2022-09-10T00:14:37.597Z,485.00
2022-09-10T00:15:38.757Z,485.00
2022-09-10T00:16:37.601Z,487.00
2022-09-10T00:17:37.828Z,488.00
2022-09-10T00:18:37.748Z,492.00
2022-09-10T00:19:37.649Z,490.00
2022-09-10T00:20:37.528Z,490.00
2022-09-10T00:21:37.738Z,491.00
2022-09-10T00:22:37.499Z,489.00
2022-09-10T00:23:37.569Z,490.00
2022-09-10T00:24:37.546Z,489.00
2022-09-10T00:25:37.555Z,488.00
2022-09-10T00:26:37.469Z,486.00
2022-09-10T00:27:38.569Z,481.00
2022-09-10T00:28:37.679Z,481.00
2022-09-10T00:29:38.549Z,480.00
2022-09-10T00:30:37.388Z,480.00
2022-09-10T00:31:37.681Z,480.00
2022-09-10T00:32:37.370Z,481.00
2022-09-10T00:33:37.458Z,482.00
2022-09-10T00:34:37.359Z,488.00
2022-09-10T00:35:37.441Z,487.00
2022-09-10T00:36:37.312Z,467.00
2022-09-10T00:37:37.481Z,470.00
2022-09-10T00:38:37.321Z,480.00
2022-09-10T00:39:37.469Z,478.00
2022-09-10T00:40:37.300Z,487.00
2022-09-10T00:41:38.359Z,492.00
2022-09-10T00:42:37.230Z,492.00
2022-09-10T00:43:37.300Z,494.00
2022-09-10T00:44:37.269Z,494.00
2022-09-10T00:45:39.326Z,493.00
2022-09-10T00:46:37.232Z,489.00
2022-09-10T00:47:37.342Z,490.00
2022-09-10T00:48:37.218Z,488.00
2022-09-10T00:49:37.285Z,487.00
2022-09-10T00:50:37.120Z,483.00
2022-09-10T00:51:40.436Z,484.00
2022-09-10T00:52:39.821Z,482.00
2022-09-10T00:53:37.150Z,480.00
2022-09-10T00:54:37.220Z,487.00
2022-09-10T00:55:38.264Z,490.00
2022-09-10T00:56:37.041Z,491.00
2022-09-10T00:57:38.196Z,491.00
2022-09-10T00:58:37.078Z,494.00
2022-09-10T00:59:37.062Z,497.00
2022-09-10T01:00:37.091Z,494.00
2022-09-10T01:01:39.231Z,525.00
2022-09-10T01:02:36.971Z,655.00
2022-09-10T01:03:37.081Z,908.00
2022-09-10T01:04:36.941Z,502.00
2022-09-10T01:05:38.091Z,497.00
2022-09-10T01:06:36.935Z,502.00
2022-09-10T01:07:38.071Z,500.00
2022-09-10T01:08:36.923Z,492.00
2022-09-10T01:09:36.970Z,489.00
2022-09-10T01:10:36.863Z,490.00
2022-09-10T01:11:36.970Z,491.00
2022-09-10T01:12:36.842Z,487.00
2022-09-10T01:13:36.962Z,482.00
2022-09-10T01:14:36.854Z,504.00
2022-09-10T01:15:36.913Z,483.00
2022-09-10T01:16:36.859Z,490.00
2022-09-10T01:17:36.877Z,488.00
2022-09-10T01:18:36.764Z,488.00
2022-09-10T01:19:36.919Z,488.00
2022-09-10T01:20:36.795Z,485.00
2022-09-10T01:21:36.902Z,485.00
2022-09-10T01:22:36.712Z,488.00
2022-09-10T01:23:36.783Z,487.00
2022-09-10T01:24:36.673Z,487.00
2022-09-10T01:25:36.835Z,490.00
2022-09-10T01:26:36.686Z,491.00
2022-09-10T01:27:36.694Z,488.00
2022-09-10T01:28:36.641Z,490.00
2022-09-10T01:29:57.645Z,489.00
2022-09-10T01:30:36.603Z,340.00
2022-09-10T01:31:36.803Z,469.00
2022-09-10T01:32:36.583Z,491.00
2022-09-10T01:33:36.805Z,494.00
2022-09-10T01:34:36.554Z,492.00
2022-09-10T01:35:36.707Z,487.00
2022-09-10T01:36:36.613Z,482.00
2022-09-10T01:37:36.625Z,478.00
2022-09-10T01:38:36.537Z,474.00
2022-09-10T01:39:36.664Z,478.00
2022-09-10T01:40:36.474Z,479.00
2022-09-10T01:41:37.622Z,481.00
2022-09-10T01:42:36.454Z,483.00
2022-09-10T01:43:37.576Z,484.00
2022-09-10T01:44:36.417Z,482.00
2022-09-10T01:45:36.664Z,484.00
2022-09-10T01:46:36.390Z,483.00
2022-09-10T01:47:36.504Z,480.00
2022-09-10T01:48:36.435Z,478.00
2022-09-10T01:49:36.445Z,480.00
2022-09-10T01:50:36.345Z,480.00
2022-09-10T01:51:38.565Z,479.00
2022-09-10T01:52:36.312Z,480.00
2022-09-10T01:53:58.436Z,477.00
2022-09-10T01:54:36.284Z,477.00
2022-09-10T01:55:36.346Z,481.00
2022-09-10T01:56:36.385Z,480.00
2022-09-10T01:57:37.484Z,475.00
2022-09-10T01:58:36.225Z,476.00
2022-09-10T01:59:36.396Z,477.00
2022-09-10T02:00:36.206Z,480.00
2022-09-10T02:01:36.387Z,479.00
2022-09-10T02:02:36.307Z,479.00
2022-09-10T02:03:36.343Z,482.00
2022-09-10T02:04:36.148Z,484.00
2022-09-10T02:05:36.277Z,486.00
2022-09-10T02:06:36.122Z,138.00
2022-09-10T02:07:38.246Z,440.00
2022-09-10T02:08:36.158Z,472.00
2022-09-10T02:09:36.246Z,0.00
2022-09-10T02:10:36.056Z,788.00
2022-09-10T02:11:36.227Z,582.00
2022-09-10T02:12:36.036Z,522.00
2022-09-10T02:13:36.187Z,534.00
2022-09-10T02:14:36.057Z,545.00
2022-09-10T02:15:36.185Z,483.00
2022-09-10T02:16:36.028Z,493.00
2022-09-10T02:17:36.139Z,492.00
2022-09-10T02:18:35.956Z,487.00
2022-09-10T02:19:36.097Z,494.00
2022-09-10T02:20:35.947Z,492.00
2022-09-10T02:21:37.099Z,493.00
2022-09-10T02:22:35.920Z,489.00
2022-09-10T02:23:57.017Z,485.00
2022-09-10T02:24:35.877Z,486.00
2022-09-10T02:25:35.968Z,485.00
2022-09-10T02:26:35.849Z,484.00
2022-09-10T02:27:36.057Z,486.00
2022-09-10T02:28:35.946Z,490.00
2022-09-10T02:29:37.018Z,490.00
2022-09-10T02:30:35.798Z,493.00
2022-09-10T02:31:36.025Z,495.00
2022-09-10T02:32:35.779Z,500.00
2022-09-10T02:33:35.913Z,501.00
2022-09-10T02:34:35.789Z,502.00
2022-09-10T02:35:36.946Z,502.00
2022-09-10T02:36:35.730Z,505.00
2022-09-10T02:37:36.812Z,506.00
2022-09-10T02:38:35.692Z,505.00
2022-09-10T02:39:35.934Z,503.00
2022-09-10T02:40:35.697Z,503.00
2022-09-10T02:41:37.749Z,505.00
2022-09-10T02:42:35.662Z,506.00
2022-09-10T02:43:35.687Z,506.00
2022-09-10T02:44:35.690Z,505.00
2022-09-10T02:45:35.794Z,502.00
2022-09-10T02:46:35.578Z,500.00
2022-09-10T02:47:35.708Z,498.00
2022-09-10T02:48:35.578Z,497.00
2022-09-10T02:49:35.727Z,498.00
2022-09-10T02:50:35.559Z,498.00
2022-09-10T02:51:37.649Z,499.00
2022-09-10T02:52:35.499Z,496.00
2022-09-10T02:53:35.600Z,498.00
2022-09-10T02:54:35.469Z,499.00
2022-09-10T02:55:35.695Z,501.00
2022-09-10T02:56:35.480Z,501.00
2022-09-10T02:57:36.618Z,501.00
2022-09-10T02:58:35.471Z,505.00
2022-09-10T02:59:35.578Z,509.00
2022-09-10T03:00:35.392Z,509.00
2022-09-10T03:01:35.557Z,509.00
2022-09-10T03:02:35.390Z,509.00
2022-09-10T03:03:38.700Z,507.00
2022-09-10T03:04:35.417Z,507.00
2022-09-10T03:05:35.480Z,508.00
2022-09-10T03:06:35.317Z,506.00
2022-09-10T03:07:35.425Z,507.00
2022-09-10T03:08:35.353Z,506.00
2022-09-10T03:09:35.402Z,505.00
2022-09-10T03:10:35.312Z,504.00
2022-09-10T03:11:35.409Z,505.00
2022-09-10T03:12:35.220Z,507.00
2022-09-10T03:13:35.321Z,508.00
2022-09-10T03:14:35.221Z,511.00
2022-09-10T03:15:36.300Z,506.00
2022-09-10T03:16:35.343Z,505.00
2022-09-10T03:17:35.393Z,507.00
2022-09-10T03:18:35.485Z,506.00
2022-09-10T03:19:35.222Z,516.00
2022-09-10T03:20:35.142Z,519.00
2022-09-10T03:21:35.263Z,517.00
2022-09-10T03:22:35.090Z,248.00
2022-09-10T03:23:37.294Z,516.00
2022-09-10T03:24:35.072Z,503.00
2022-09-10T03:25:35.254Z,373.00
2022-09-10T03:26:35.051Z,507.00
2022-09-10T03:27:35.061Z,506.00
2022-09-10T03:28:35.067Z,506.00
2022-09-10T03:29:36.121Z,503.00
2022-09-10T03:30:35.035Z,505.00
2022-09-10T03:31:35.164Z,508.00
2022-09-10T03:32:34.971Z,508.00
2022-09-10T03:33:56.049Z,508.00
2022-09-10T03:34:34.933Z,508.00
2022-09-10T03:35:36.034Z,505.00
2022-09-10T03:36:34.899Z,501.00
2022-09-10T03:37:34.958Z,502.00
2022-09-10T03:38:34.943Z,502.00
2022-09-10T03:39:34.992Z,503.00
2022-09-10T03:40:34.902Z,504.00
2022-09-10T03:41:35.932Z,505.00
2022-09-10T03:42:34.825Z,507.00
2022-09-10T03:43:35.891Z,513.00
2022-09-10T03:44:34.813Z,515.00
2022-09-10T03:45:36.011Z,514.00
2022-09-10T03:46:34.840Z,514.00
2022-09-10T03:47:35.855Z,510.00
2022-09-10T03:48:34.762Z,511.00
2022-09-10T03:49:34.852Z,515.00
2022-09-10T03:50:34.724Z,516.00
2022-09-10T03:51:35.821Z,515.00
2022-09-10T03:52:34.681Z,516.00
2022-09-10T03:53:34.836Z,518.00
2022-09-10T03:54:34.723Z,516.00
2022-09-10T03:55:36.763Z,520.00
2022-09-10T03:56:34.679Z,519.00
2022-09-10T03:57:34.733Z,517.00
2022-09-10T03:58:34.665Z,515.00
2022-09-10T03:59:34.796Z,512.00
2022-09-10T04:00:34.623Z,512.00
2022-09-10T04:01:57.799Z,512.00
2022-09-10T04:02:34.553Z,513.00
2022-09-10T04:03:34.578Z,511.00
2022-09-10T04:04:34.674Z,511.00
2022-09-10T04:05:34.563Z,513.00
2022-09-10T04:06:34.605Z,513.00
2022-09-10T04:07:34.506Z,520.00
2022-09-10T04:09:45.395Z,573.00
2022-09-10T04:10:45.293Z,512.00
2022-09-10T04:11:45.386Z,507.00
2022-09-10T04:12:45.254Z,509.00
2022-09-10T04:13:45.377Z,510.00
2022-09-10T04:14:45.232Z,514.00
2022-09-10T04:15:47.355Z,514.00
2022-09-10T04:16:45.264Z,509.00
2022-09-10T04:17:45.247Z,508.00
2022-09-10T04:18:45.184Z,506.00
2022-09-10T04:19:47.287Z,508.00
2022-09-10T04:20:45.105Z,512.00
2022-09-10T04:21:45.300Z,518.00
2022-09-10T04:22:45.086Z,520.00
2022-09-10T04:23:45.094Z,521.00
2022-09-10T04:24:45.126Z,525.00
2022-09-10T04:25:45.135Z,520.00
2022-09-10T04:26:45.035Z,518.00
2022-09-10T04:27:45.255Z,516.00
2022-09-10T04:28:45.057Z,516.00
2022-09-10T04:29:45.187Z,512.00
2022-09-10T04:30:45.093Z,511.00
2022-09-10T04:31:46.136Z,510.00
2022-09-10T04:32:44.949Z,509.00
2022-09-10T04:33:45.002Z,508.00
2022-09-10T04:34:44.924Z,508.00
2022-09-10T04:35:46.027Z,509.00
2022-09-10T04:36:44.947Z,509.00
2022-09-10T04:37:44.985Z,509.00
2022-09-10T04:38:44.864Z,504.00
2022-09-10T04:39:44.973Z,503.00
2022-09-10T04:40:44.846Z,503.00
2022-09-10T04:42:09.138Z,503.00
2022-09-10T04:42:44.846Z,504.00
2022-09-10T04:43:44.846Z,502.00
2022-09-10T04:44:44.885Z,503.00
2022-09-10T04:45:44.918Z,504.00
2022-09-10T04:46:44.767Z,505.00
2022-09-10T04:47:45.897Z,506.00
2022-09-10T04:48:44.741Z,504.00
2022-09-10T04:49:44.916Z,817.00
2022-09-10T04:51:05.405Z,2052.00
2022-09-10T04:51:45.694Z,509.00
2022-09-10T04:52:44.687Z,511.00
2022-09-10T04:53:44.858Z,498.00
2022-09-10T04:54:44.657Z,502.00
2022-09-10T04:55:46.864Z,504.00
2022-09-10T04:56:44.797Z,506.00
2022-09-10T04:57:44.719Z,508.00
2022-09-10T04:58:45.193Z,507.00
2022-09-10T04:59:45.717Z,506.00
2022-09-10T05:00:44.595Z,505.00
2022-09-10T05:01:44.705Z,584.00
2022-09-10T05:02:44.637Z,1463.00
2022-09-10T05:03:45.726Z,606.00
2022-09-10T05:04:44.524Z,605.00
2022-09-10T05:05:44.700Z,608.00
2022-09-10T05:06:44.509Z,607.00
2022-09-10T05:07:44.598Z,603.00
2022-09-10T05:08:44.478Z,598.00
2022-09-10T05:09:44.505Z,597.00
2022-09-10T05:10:44.448Z,597.00
2022-09-10T05:11:44.602Z,599.00
2022-09-10T05:12:44.419Z,599.00
2022-09-10T05:13:46.517Z,599.00
2022-09-10T05:14:44.397Z,599.00
2022-09-10T05:15:45.546Z,597.00
2022-09-10T05:16:44.429Z,596.00
2022-09-10T05:17:46.456Z,598.00
2022-09-10T05:18:44.348Z,597.00
2022-09-10T05:19:45.407Z,593.00
2022-09-10T05:20:44.318Z,592.00
2022-09-10T05:21:44.549Z,596.00
2022-09-10T05:22:44.417Z,608.00
2022-09-10T05:23:44.409Z,601.00
2022-09-10T05:24:44.260Z,599.00
2022-09-10T05:25:46.424Z,594.00
2022-09-10T05:26:44.229Z,596.00
2022-09-10T05:27:44.438Z,595.00
2022-09-10T05:28:44.235Z,595.00
2022-09-10T05:29:45.339Z,597.00
2022-09-10T05:30:48.279Z,597.00
2022-09-10T05:31:45.246Z,595.00
2022-09-10T05:32:44.379Z,1464.00
2022-09-10T05:33:44.297Z,565.00
2022-09-10T05:34:46.289Z,550.00
2022-09-10T05:35:44.139Z,549.00
2022-09-10T05:36:44.270Z,547.00
2022-09-10T05:37:44.092Z,544.00
2022-09-10T05:38:46.454Z,543.00
2022-09-10T05:39:44.156Z,542.00
2022-09-10T05:40:44.110Z,844.00
2022-09-10T05:41:44.058Z,759.00
2022-09-10T05:42:44.169Z,763.00
2022-09-10T05:43:44.010Z,1044.00
2022-09-10T05:44:44.039Z,1100.00
2022-09-10T05:45:44.041Z,1112.00
2022-09-10T05:46:44.052Z,1114.00
2022-09-10T05:47:44.108Z,1112.00
2022-09-10T05:48:44.331Z,1104.00
2022-09-10T05:49:43.930Z,1115.00
2022-09-10T05:50:45.113Z,1117.00
2022-09-10T05:51:43.930Z,1123.00
2022-09-10T05:52:44.060Z,1124.00
2022-09-10T05:53:43.984Z,1134.00
2022-09-10T05:54:43.950Z,1137.00
2022-09-10T05:55:43.850Z,1136.00
2022-09-10T05:56:43.994Z,1133.00
2022-09-10T05:57:43.831Z,1133.00
2022-09-10T05:58:43.833Z,1131.00
2022-09-10T05:59:43.890Z,1133.00
2022-09-10T06:00:43.853Z,1132.00
2022-09-10T06:01:43.779Z,1138.00
2022-09-10T06:02:43.906Z,1144.00
2022-09-10T06:03:43.750Z,1144.00
2022-09-10T06:04:43.821Z,1146.00
2022-09-10T06:05:43.800Z,1146.00
2022-09-10T06:06:43.791Z,1140.00
2022-09-10T06:07:43.698Z,1141.00
2022-09-10T06:08:43.702Z,1140.00
2022-09-10T06:09:43.679Z,1140.00
2022-09-10T06:10:44.741Z,1138.00
2022-09-10T06:11:43.681Z,1124.00
2022-09-10T06:12:43.901Z,1107.00
2022-09-10T06:13:43.665Z,593.00
2022-09-10T06:14:43.703Z,591.00
2022-09-10T06:15:43.591Z,589.00
2022-09-10T06:16:43.771Z,588.00
2022-09-10T06:17:43.593Z,592.00
2022-09-10T06:18:43.589Z,991.00
2022-09-10T06:19:43.562Z,596.00
2022-09-10T06:20:43.582Z,594.00
2022-09-10T06:21:43.564Z,904.00
2022-09-10T06:22:43.642Z,673.00
2022-09-10T06:23:43.506Z,668.00
2022-09-10T06:24:43.612Z,1013.00
2022-09-10T06:25:43.470Z,618.00
2022-09-10T06:26:43.532Z,597.00
2022-09-10T06:27:43.442Z,516.00
2022-09-10T06:28:43.452Z,977.00
2022-09-10T06:29:43.553Z,789.00
2022-09-10T06:30:43.554Z,483.00
2022-09-10T06:31:43.384Z,474.00
2022-09-10T06:32:43.503Z,479.00
2022-09-10T06:33:43.362Z,481.00
2022-09-10T06:35:04.643Z,482.00
2022-09-10T06:35:43.404Z,483.00
2022-09-10T06:36:43.400Z,484.00
2022-09-10T06:37:43.304Z,483.00
2022-09-10T06:38:43.373Z,482.00
2022-09-10T06:39:43.336Z,481.00
2022-09-10T06:40:43.493Z,478.00
2022-09-10T06:41:46.840Z,470.00
2022-09-10T06:42:44.232Z,469.00
2022-09-10T06:43:44.293Z,470.00
2022-09-10T06:44:43.205Z,466.00
2022-09-10T06:45:43.288Z,466.00
2022-09-10T06:48:47.836Z,481.00
2022-09-10T06:49:43.188Z,479.00
2022-09-10T06:50:43.254Z,478.00
2022-09-10T06:51:43.122Z,469.00
2022-09-10T06:52:44.255Z,463.00
2022-09-10T06:53:43.085Z,460.00
2022-09-10T06:54:43.157Z,460.00
2022-09-10T06:55:43.064Z,460.00
2022-09-10T06:56:43.191Z,461.00
2022-09-10T06:57:43.106Z,454.00
2022-09-10T06:58:44.136Z,456.00
2022-09-10T06:59:43.074Z,452.00
2022-09-10T07:00:43.115Z,455.00
2022-09-10T07:01:42.967Z,454.00
2022-09-10T07:02:44.074Z,453.00
2022-09-10T07:03:42.969Z,453.00
2022-09-10T07:04:43.163Z,453.00
2022-09-10T07:05:42.954Z,452.00
2022-09-10T07:06:42.998Z,449.00
2022-09-10T07:07:42.901Z,450.00
2022-09-10T07:08:42.925Z,448.00
2022-09-10T07:09:42.857Z,448.00
2022-09-10T07:10:43.104Z,447.00
2022-09-10T07:11:42.850Z,446.00
2022-09-10T07:12:42.835Z,449.00
2022-09-10T07:13:42.819Z,450.00
2022-09-10T07:14:42.863Z,449.00
2022-09-10T07:15:42.813Z,449.00
2022-09-10T07:16:42.946Z,448.00
2022-09-10T07:17:42.755Z,449.00
2022-09-10T07:18:42.880Z,451.00
2022-09-10T07:19:42.806Z,451.00
2022-09-10T07:20:43.935Z,449.00
2022-09-10T07:21:42.738Z,447.00
2022-09-10T07:22:42.772Z,448.00
2022-09-10T07:23:42.668Z,448.00
2022-09-10T07:24:42.725Z,452.00
2022-09-10T07:25:42.645Z,451.00
2022-09-10T07:26:42.807Z,453.00
2022-09-10T07:27:42.730Z,453.00
2022-09-10T07:28:42.699Z,448.00
2022-09-10T07:29:42.577Z,447.00
2022-09-10T07:30:42.713Z,443.00
2022-09-10T07:31:42.563Z,446.00
2022-09-10T07:32:42.597Z,450.00
2022-09-10T07:33:42.594Z,451.00
2022-09-10T07:34:42.647Z,453.00
2022-09-10T07:35:42.506Z,1266.00
2022-09-10T07:36:42.607Z,447.00
2022-09-10T07:37:42.478Z,450.00
2022-09-10T07:38:42.658Z,452.00
2022-09-10T07:39:42.641Z,449.00
2022-09-10T07:40:42.477Z,988.00
2022-09-10T07:41:42.450Z,886.00
2022-09-10T07:42:42.446Z,460.00
2022-09-10T07:43:42.399Z,459.00
2022-09-10T07:44:42.497Z,454.00
2022-09-10T07:45:42.439Z,453.00
2022-09-10T07:46:42.519Z,451.00
2022-09-10T07:47:42.364Z,452.00
2022-09-10T07:48:42.457Z,450.00
2022-09-10T07:49:42.317Z,449.00
2022-09-10T07:50:43.420Z,449.00
2022-09-10T07:51:42.296Z,448.00
2022-09-10T07:52:42.478Z,457.00
2022-09-10T07:53:50.254Z,455.00
2022-09-10T07:54:43.258Z,452.00
2022-09-10T07:55:42.339Z,450.00
2022-09-10T07:56:42.218Z,471.00
2022-09-10T07:57:42.267Z,441.00
2022-09-10T07:58:42.297Z,450.00
2022-09-10T07:59:42.300Z,451.00
2022-09-10T08:00:42.174Z,448.00
2022-09-10T08:01:43.395Z,449.00
2022-09-10T08:02:42.138Z,452.00
2022-09-10T08:03:42.349Z,450.00
2022-09-10T08:04:42.262Z,453.00
2022-09-10T08:05:42.210Z,452.00
2022-09-10T08:06:42.091Z,454.00
2022-09-10T08:07:43.279Z,450.00
2022-09-10T08:08:42.059Z,448.00
2022-09-10T08:09:42.190Z,449.00
2022-09-10T08:10:42.123Z,452.00
2022-09-10T08:11:42.054Z,449.00
2022-09-10T08:12:42.001Z,451.00
2022-09-10T08:13:42.065Z,452.00
2022-09-10T08:14:41.982Z,451.00
2022-09-10T08:15:42.118Z,451.00
2022-09-10T08:16:44.429Z,450.00
2022-09-10T08:18:05.099Z,451.00
2022-09-10T08:18:41.937Z,449.00
2022-09-10T08:19:42.053Z,450.00
2022-09-10T08:20:41.899Z,452.00
2022-09-10T08:21:42.013Z,451.00
2022-09-10T08:22:41.912Z,453.00
2022-09-10T08:23:41.964Z,454.00
2022-09-10T08:24:41.908Z,452.00
2022-09-10T08:25:41.940Z,452.00
2022-09-10T08:26:41.861Z,451.00
2022-09-10T08:27:42.893Z,449.00
2022-09-10T08:28:42.013Z,448.00
2022-09-10T08:29:41.940Z,446.00
2022-09-10T08:30:41.791Z,449.00
2022-09-10T08:31:41.773Z,451.00
2022-09-10T08:32:41.751Z,451.00
2022-09-10T08:33:41.793Z,447.00
2022-09-10T08:34:41.742Z,447.00
2022-09-10T08:35:41.803Z,445.00
2022-09-10T08:36:41.691Z,447.00
2022-09-10T08:37:41.747Z,445.00
2022-09-10T08:38:41.726Z,448.00
2022-09-10T08:39:41.945Z,451.00
2022-09-10T08:40:41.716Z,449.00
2022-09-10T08:41:41.643Z,448.00
2022-09-10T08:42:41.606Z,448.00
2022-09-10T08:43:41.699Z,448.00
2022-09-10T08:44:41.584Z,446.00
2022-09-10T08:45:42.626Z,448.00
2022-09-10T08:46:41.622Z,450.00
2022-09-10T08:47:41.585Z,450.00
2022-09-10T08:48:41.578Z,450.00
2022-09-10T08:49:41.693Z,450.00
2022-09-10T08:50:41.493Z,445.00
2022-09-10T08:51:42.545Z,447.00
2022-09-10T08:52:41.492Z,446.00
2022-09-10T08:53:41.675Z,448.00
2022-09-10T08:54:41.545Z,445.00
2022-09-10T08:55:48.297Z,448.00
2022-09-10T08:56:42.505Z,451.00
2022-09-10T08:57:41.526Z,449.00
2022-09-10T08:58:41.502Z,451.00
2022-09-10T08:59:42.496Z,511.00
2022-09-10T09:00:41.382Z,461.00
2022-09-10T09:01:42.481Z,438.00
2022-09-10T09:02:49.655Z,403.00
2022-09-10T09:03:42.336Z,443.00
2022-09-10T09:04:41.529Z,441.00
2022-09-10T09:05:41.317Z,423.00
2022-09-10T09:06:41.355Z,432.00
2022-09-10T09:07:41.267Z,438.00
2022-09-10T09:08:41.446Z,438.00
2022-09-10T09:09:41.296Z,442.00
2022-09-10T09:11:02.327Z,444.00
2022-09-10T09:11:41.248Z,448.00
2022-09-10T09:12:41.257Z,447.00
2022-09-10T09:13:41.187Z,767.00
2022-09-10T09:14:42.197Z,1055.00
2022-09-10T09:15:41.224Z,560.00
2022-09-10T09:16:43.278Z,445.00
2022-09-10T09:17:41.129Z,441.00
2022-09-10T09:18:42.277Z,439.00
2022-09-10T09:19:41.247Z,444.00
2022-09-10T09:20:41.187Z,443.00
2022-09-10T09:21:41.088Z,441.00
2022-09-10T09:22:41.121Z,443.00
2022-09-10T09:23:56.856Z,441.00
2022-09-10T09:24:42.060Z,416.00
2022-09-10T09:25:41.148Z,312.00
2022-09-10T09:26:41.008Z,314.00
2022-09-10T09:27:42.238Z,323.00
2022-09-10T09:28:41.100Z,323.00
2022-09-10T09:29:41.161Z,320.00
2022-09-10T09:30:41.001Z,326.00
2022-09-10T09:31:40.984Z,322.00
2022-09-10T09:32:40.930Z,321.00
2022-09-10T09:33:41.091Z,320.00
2022-09-10T09:34:40.949Z,322.00
2022-09-10T09:35:41.950Z,322.00
2022-09-10T09:36:40.938Z,320.00
2022-09-10T09:37:40.938Z,320.00
2022-09-10T09:38:40.986Z,320.00
2022-09-10T09:39:41.016Z,317.00
2022-09-10T09:40:40.820Z,316.00
2022-09-10T09:41:41.877Z,317.00
2022-09-10T09:42:40.811Z,320.00
2022-09-10T09:43:40.871Z,316.00
2022-09-10T09:44:40.941Z,316.00
2022-09-10T09:45:40.970Z,315.00
2022-09-10T09:46:40.744Z,313.00
2022-09-10T09:47:40.911Z,317.00
2022-09-10T09:48:40.886Z,320.00
2022-09-10T09:49:40.900Z,320.00
2022-09-10T09:50:40.791Z,321.00
2022-09-10T09:51:40.774Z,320.00
2022-09-10T09:52:40.668Z,317.00
2022-09-10T09:53:44.032Z,316.00
2022-09-10T09:55:12.698Z,318.00
2022-09-10T09:55:41.631Z,319.00
2022-09-10T09:56:40.671Z,320.00
2022-09-10T09:57:41.835Z,301.00
2022-09-10T09:58:40.744Z,428.00
2022-09-10T09:59:40.723Z,581.00
2022-09-10T10:00:40.564Z,864.00
2022-09-10T10:01:40.742Z,439.00
2022-09-10T10:02:40.628Z,733.00
2022-09-10T10:03:41.704Z,1005.00
2022-09-10T10:04:42.327Z,1404.00
2022-09-10T10:05:40.543Z,650.00
2022-09-10T10:06:40.482Z,598.00
2022-09-10T10:07:40.592Z,557.00
2022-09-10T10:08:40.600Z,510.00
2022-09-10T10:09:40.683Z,874.00
2022-09-10T10:10:40.446Z,889.00
2022-09-10T10:11:40.533Z,900.00
2022-09-10T10:12:40.453Z,889.00
2022-09-10T10:13:40.572Z,893.00
2022-09-10T10:14:40.376Z,891.00
2022-09-10T10:15:40.559Z,904.00
2022-09-10T10:16:40.367Z,1063.00
2022-09-10T10:18:02.445Z,1063.00
2022-09-10T10:18:40.482Z,448.00
2022-09-10T10:19:40.546Z,442.00
2022-09-10T10:20:40.374Z,444.00
2022-09-10T10:21:41.404Z,445.00
2022-09-10T10:22:40.264Z,450.00
2022-09-10T10:23:40.360Z,450.00
2022-09-10T10:24:40.284Z,445.00
2022-09-10T10:26:01.306Z,446.00
2022-09-10T10:26:40.317Z,447.00
2022-09-10T10:27:40.378Z,447.00
2022-09-10T10:28:40.236Z,441.00
2022-09-10T10:29:40.356Z,440.00
2022-09-10T10:30:40.157Z,440.00
2022-09-10T10:31:40.238Z,440.00
2022-09-10T10:32:40.153Z,447.00
2022-09-10T10:33:40.186Z,768.00
2022-09-10T10:34:40.096Z,437.00
2022-09-10T10:35:42.276Z,556.00
2022-09-10T10:36:40.076Z,436.00
2022-09-10T10:37:40.194Z,430.00
2022-09-10T10:38:40.230Z,441.00
2022-09-10T10:39:40.322Z,442.00
2022-09-10T10:40:40.107Z,440.00
2022-09-10T10:41:40.166Z,443.00
2022-09-10T10:42:39.987Z,442.00
2022-09-10T10:43:40.103Z,439.00
2022-09-10T10:44:39.958Z,441.00
2022-09-10T10:45:40.087Z,439.00
2022-09-10T10:46:39.960Z,438.00
2022-09-10T10:47:40.207Z,440.00
2022-09-10T10:48:40.013Z,440.00
2022-09-10T10:50:52.749Z,426.00
2022-09-10T10:51:49.334Z,446.00
2022-09-10T10:52:49.420Z,442.00
2022-09-10T10:53:49.254Z,436.00
2022-09-10T10:54:49.355Z,442.00
2022-09-10T10:55:49.224Z,481.00
2022-09-10T10:56:49.424Z,476.00
2022-09-10T10:57:49.256Z,455.00
2022-09-10T10:58:53.986Z,304.00
2022-09-10T10:59:50.234Z,450.00
2022-09-10T11:00:51.360Z,442.00
2022-09-10T11:01:49.216Z,441.00
2022-09-10T11:02:49.265Z,440.00
2022-09-10T11:03:49.128Z,443.00
2022-09-10T11:04:50.255Z,445.00
2022-09-10T11:05:49.096Z,447.00
2022-09-10T11:06:51.217Z,448.00
2022-09-10T11:07:49.065Z,446.00
2022-09-10T11:08:49.261Z,447.00
2022-09-10T11:09:49.037Z,450.00
2022-09-10T11:10:50.166Z,452.00
2022-09-10T11:11:49.064Z,449.00
2022-09-10T11:12:50.182Z,451.00
2022-09-10T11:13:49.006Z,448.00
2022-09-10T11:14:49.163Z,448.00
2022-09-10T11:15:49.033Z,445.00
2022-09-10T11:16:49.183Z,448.00
2022-09-10T11:17:48.959Z,449.00
2022-09-10T11:18:50.024Z,454.00
2022-09-10T11:19:56.513Z,446.00
2022-09-10T11:20:49.909Z,444.00
2022-09-10T11:21:50.992Z,448.00
2022-09-10T11:22:48.934Z,445.00
2022-09-10T11:23:50.066Z,446.00
2022-09-10T11:24:48.838Z,441.00
2022-09-10T11:25:48.952Z,440.00
2022-09-10T11:26:48.838Z,444.00
2022-09-10T11:27:49.001Z,435.00
2022-09-10T11:28:48.787Z,589.00
2022-09-10T11:29:48.828Z,444.00
2022-09-10T11:30:48.826Z,444.00
2022-09-10T11:31:49.929Z,444.00
2022-09-10T11:32:48.791Z,444.00
2022-09-10T11:33:48.900Z,440.00
2022-09-10T11:34:48.702Z,440.00
2022-09-10T11:36:59.107Z,480.00
2022-09-10T11:37:58.048Z,450.00
2022-09-10T11:38:59.066Z,445.00
2022-09-10T11:39:58.079Z,444.00
2022-09-10T11:40:58.125Z,443.00
2022-09-10T11:41:57.959Z,442.00
2022-09-10T11:43:00.009Z,439.00
2022-09-10T11:43:57.970Z,439.00
2022-09-10T11:45:00.150Z,444.00
2022-09-10T11:45:57.909Z,435.00
2022-09-10T11:46:58.053Z,427.00
2022-09-10T11:47:57.928Z,437.00
2022-09-10T11:48:58.020Z,438.00
2022-09-10T11:49:57.948Z,441.00
2022-09-10T11:50:57.959Z,420.00
2022-09-10T11:51:57.820Z,434.00
2022-09-10T11:52:57.991Z,436.00
2022-09-10T11:53:57.801Z,447.00
2022-09-10T11:54:57.793Z,443.00
2022-09-10T11:55:57.790Z,434.00
2022-09-10T11:56:57.862Z,432.00
2022-09-10T11:57:57.764Z,435.00
2022-09-10T11:58:59.062Z,434.00
2022-09-10T11:59:57.741Z,445.00
2022-09-10T12:00:57.922Z,444.00
2022-09-10T12:01:57.761Z,442.00
2022-09-10T12:02:57.780Z,440.00
2022-09-10T12:03:57.709Z,441.00
2022-09-10T12:04:57.769Z,449.00
2022-09-10T12:05:57.642Z,444.00
2022-09-10T12:06:57.786Z,444.00
2022-09-10T12:07:57.644Z,445.00
2022-09-10T12:08:57.832Z,444.00
2022-09-10T12:09:57.612Z,442.00
2022-09-10T12:12:07.617Z,473.00
2022-09-10T12:13:07.497Z,444.00
2022-09-10T12:14:07.579Z,437.00
2022-09-10T12:15:07.408Z,457.00
2022-09-10T12:16:07.702Z,437.00
2022-09-10T12:17:07.344Z,435.00
2022-09-10T12:18:07.476Z,440.00
2022-09-10T12:19:07.328Z,441.00
2022-09-10T12:20:08.389Z,435.00
2022-09-10T12:21:07.317Z,434.00
2022-09-10T12:22:07.379Z,436.00
2022-09-10T12:23:07.305Z,434.00
2022-09-10T12:24:08.348Z,438.00
2022-09-10T12:25:07.289Z,440.00
2022-09-10T12:26:07.243Z,453.00
2022-09-10T12:27:07.220Z,445.00
2022-09-10T12:28:08.438Z,444.00
2022-09-10T12:29:07.229Z,434.00
2022-09-10T12:30:07.219Z,445.00
2022-09-10T12:31:07.207Z,443.00
2022-09-10T12:32:07.251Z,442.00
2022-09-10T12:33:07.120Z,422.00
2022-09-10T12:34:07.250Z,421.00